Terminal Aerodrome Forecast
Issued by NWS Duluth, MN

Home | Current Version | Previous Version | Text Only | Print | Product List | Glossary On
Versions: 1 2 3 4 5 6 7 8 9 10 11 12 13 14 15 16 17 18 19 20 21 22 23 24 25 26 27 28 29 30 31
378
FTUS43 KDLH 250907 AAA
TAFINL
TAF AMD
KINL 250907Z 2509/2606 34007KT 6SM -SHRA BR SCT030 OVC060
      TEMPO 2509/2512 BKN012 OVC025
     FM251200 34009KT 6SM -RA OVC018
     FM251800 34010KT 6SM -SHRA OVC025
     FM252200 34005KT P6SM SCT045 OVC070
     FM260200 28002KT P6SM SKC=

USA.gov is the U.S. government's official web portal to all federal, state and local government web resources and services.